Time;durP1;ratioP1;P1;durP2;ratioP2;P2;SDS_P1;SDS_P2;PMS_P1;PMS_P2;Temp;Humidity;BMP_temperature;BMP_pressure;BME280_temperature;BME280_humidity;BME280_pressure;Samples;Min_cycle;Max_cycle;Signal;HPM_P1;HPM_P2
2022/01/07 00:00:35;;;;;;;7.88;6.15;;;;;;;;;;10358045;28;20067;-58
2022/01/07 00:05:44;;;;;;;7.13;5.40;;;;;;;;;;10356946;28;20071;-58
2022/01/07 00:10:42;;;;;;;6.40;5.80;;;;;;;;;;10357868;28;20059;-57
2022/01/07 00:15:41;;;;;;;8.40;5.72;;;;;;;;;;10359044;28;20070;-59
2022/01/07 00:20:40;;;;;;;6.32;5.55;;;;;;;;;;10359237;28;20063;-59
2022/01/07 00:25:39;;;;;;;6.65;5.68;;;;;;;;;;10357283;28;20066;-59
2022/01/07 00:30:38;;;;;;;6.85;5.13;;;;;;;;;;10356963;28;20486;-59
2022/01/07 00:35:37;;;;;;;6.97;6.18;;;;;;;;;;10356654;28;20072;-59
2022/01/07 00:40:35;;;;;;;6.60;5.55;;;;;;;;;;10358223;28;20066;-59
2022/01/07 00:45:36;;;;;;;7.22;5.75;;;;;;;;;;10357670;28;20060;-59
2022/01/07 00:50:34;;;;;;;7.65;6.00;;;;;;;;;;10356555;28;20079;-59
2022/01/07 00:55:33;;;;;;;8.50;6.45;;;;;;;;;;10354649;28;20055;-59
2022/01/07 01:00:31;;;;;;;6.63;5.68;;;;;;;;;;10354300;28;20079;-59
2022/01/07 01:05:32;;;;;;;9.52;6.28;;;;;;;;;;10354423;28;20067;-59
2022/01/07 01:10:30;;;;;;;8.50;6.45;;;;;;;;;;10355078;28;20453;-59
2022/01/07 01:15:29;;;;;;;8.43;5.85;;;;;;;;;;10356703;28;20056;-59
2022/01/07 01:20:27;;;;;;;11.18;7.25;;;;;;;;;;10355844;28;20525;-58
2022/01/07 01:25:27;;;;;;;8.27;6.07;;;;;;;;;;10354597;28;20063;-59
2022/01/07 01:30:28;;;;;;;9.00;6.30;;;;;;;;;;10354598;28;20055;-59
2022/01/07 01:35:27;;;;;;;8.15;6.20;;;;;;;;;;10355858;28;20078;-59
2022/01/07 01:40:26;;;;;;;12.80;7.80;;;;;;;;;;10355426;28;20067;-58
2022/01/07 01:45:25;;;;;;;10.48;7.70;;;;;;;;;;10355441;28;20075;-59
2022/01/07 01:50:24;;;;;;;9.30;6.10;;;;;;;;;;10354168;28;20079;-59
2022/01/07 01:55:23;;;;;;;10.75;7.03;;;;;;;;;;10353712;28;20055;-59
2022/01/07 02:00:24;;;;;;;8.82;6.93;;;;;;;;;;10351379;28;20433;-58
2022/01/07 02:05:23;;;;;;;11.30;7.20;;;;;;;;;;10353270;28;20503;-58
2022/01/07 02:10:21;;;;;;;9.25;7.75;;;;;;;;;;10353148;28;20074;-59
2022/01/07 02:15:20;;;;;;;11.98;7.53;;;;;;;;;;10350331;28;20056;-59
2022/01/07 02:20:21;;;;;;;9.20;7.22;;;;;;;;;;10351734;28;20079;-59
2022/01/07 02:25:20;;;;;;;9.90;7.53;;;;;;;;;;10352328;28;20465;-59
2022/01/07 02:30:19;;;;;;;9.63;7.70;;;;;;;;;;10351095;28;20067;-59
2022/01/07 02:35:20;;;;;;;10.10;7.53;;;;;;;;;;10352311;28;20068;-59
2022/01/07 02:40:18;;;;;;;8.88;7.45;;;;;;;;;;10350411;28;20122;-59
2022/01/07 02:45:16;;;;;;;7.82;7.03;;;;;;;;;;10351562;28;20078;-58
2022/01/07 02:50:15;;;;;;;9.65;6.85;;;;;;;;;;10347505;28;20595;-58
2022/01/07 02:55:14;;;;;;;9.02;7.50;;;;;;;;;;10351863;28;20064;-58
2022/01/07 03:00:13;;;;;;;10.35;8.13;;;;;;;;;;10351540;28;20074;-57
2022/01/07 03:05:12;;;;;;;11.13;8.75;;;;;;;;;;10348113;28;20090;-59
2022/01/07 03:10:10;;;;;;;11.35;9.00;;;;;;;;;;10350955;28;20401;-58
2022/01/07 03:15:11;;;;;;;8.80;7.90;;;;;;;;;;10349783;28;20480;-58
2022/01/07 03:20:10;;;;;;;10.48;8.00;;;;;;;;;;10350009;28;20064;-58
2022/01/07 03:25:10;;;;;;;14.23;8.20;;;;;;;;;;10353196;28;20071;-59
2022/01/07 03:30:10;;;;;;;11.50;8.57;;;;;;;;;;10359274;28;20063;-58
2022/01/07 03:35:11;;;;;;;10.40;9.07;;;;;;;;;;10357971;28;20083;-58
2022/01/07 03:40:11;;;;;;;11.25;9.35;;;;;;;;;;10359454;28;20543;-58
2022/01/07 03:45:12;;;;;;;8.63;7.70;;;;;;;;;;10360499;28;20078;-58
2022/01/07 03:50:11;;;;;;;12.55;9.43;;;;;;;;;;10357689;28;20079;-58
2022/01/07 03:55:11;;;;;;;26.80;15.57;;;;;;;;;;10357349;28;20433;-58
2022/01/07 04:00:12;;;;;;;13.13;10.10;;;;;;;;;;10356649;28;20072;-58
2022/01/07 04:05:10;;;;;;;16.02;11.45;;;;;;;;;;10356944;28;20072;-58
2022/01/07 04:10:09;;;;;;;14.57;10.40;;;;;;;;;;10356415;28;20086;-58
2022/01/07 04:15:08;;;;;;;14.70;10.93;;;;;;;;;;10358499;28;20048;-59
2022/01/07 04:20:10;;;;;;;17.27;12.63;;;;;;;;;;10357536;28;20582;-58
2022/01/07 04:25:12;;;;;;;15.57;11.80;;;;;;;;;;10357009;28;20507;-59
2022/01/07 04:30:11;;;;;;;17.63;13.73;;;;;;;;;;10357093;28;20493;-57
2022/01/07 04:35:12;;;;;;;19.35;12.95;;;;;;;;;;10355623;28;20068;-58
2022/01/07 04:40:12;;;;;;;19.80;14.05;;;;;;;;;;10354345;28;20139;-59
2022/01/07 04:45:10;;;;;;;22.63;15.85;;;;;;;;;;10356594;28;20071;-59
2022/01/07 04:50:12;;;;;;;17.02;12.32;;;;;;;;;;10353267;28;20444;-59
2022/01/07 04:55:11;;;;;;;20.17;15.23;;;;;;;;;;10353606;28;20429;-58
2022/01/07 05:00:10;;;;;;;18.40;14.57;;;;;;;;;;10353585;28;20059;-58
2022/01/07 05:05:09;;;;;;;17.83;15.18;;;;;;;;;;10355622;28;20109;-58
2022/01/07 05:10:10;;;;;;;19.15;15.05;;;;;;;;;;10355521;28;20421;-58
2022/01/07 05:15:08;;;;;;;16.10;13.40;;;;;;;;;;10335136;28;20078;-59
2022/01/07 05:20:07;;;;;;;17.00;12.98;;;;;;;;;;10352969;28;20064;-58
2022/01/07 05:25:06;;;;;;;16.95;12.65;;;;;;;;;;10333582;28;20503;-58
2022/01/07 05:30:07;;;;;;;14.32;11.10;;;;;;;;;;10353989;28;20064;-58
2022/01/07 05:35:06;;;;;;;16.23;12.13;;;;;;;;;;10350434;28;20146;-59
2022/01/07 05:40:06;;;;;;;16.48;13.07;;;;;;;;;;10348952;28;20063;-58
2022/01/07 05:45:06;;;;;;;16.52;12.75;;;;;;;;;;10348176;28;20595;-56
2022/01/07 05:50:05;;;;;;;12.77;10.75;;;;;;;;;;10345955;28;20402;-58
2022/01/07 05:55:03;;;;;;;15.77;12.43;;;;;;;;;;10347467;28;20128;-60
2022/01/07 06:00:02;;;;;;;15.75;13.10;;;;;;;;;;10340533;28;20060;-59
2022/01/07 06:05:11;;;;;;;18.33;12.88;;;;;;;;;;10347044;28;20465;-58
2022/01/07 06:10:09;;;;;;;15.07;12.80;;;;;;;;;;10348768;28;20067;-58
2022/01/07 06:15:08;;;;;;;17.70;13.50;;;;;;;;;;10340063;28;20511;-59
2022/01/07 06:20:07;;;;;;;19.27;13.45;;;;;;;;;;10349030;28;20075;-58
2022/01/07 06:25:07;;;;;;;13.40;11.23;;;;;;;;;;10351027;28;20083;-58
2022/01/07 06:30:06;;;;;;;14.88;11.00;;;;;;;;;;10349584;28;20461;-59
2022/01/07 06:35:05;;;;;;;20.92;16.83;;;;;;;;;;10349207;28;20603;-58
2022/01/07 06:40:04;;;;;;;19.15;14.38;;;;;;;;;;10344117;28;20509;-59
2022/01/07 06:45:05;;;;;;;15.00;13.00;;;;;;;;;;10350979;28;20063;-57
2022/01/07 06:50:04;;;;;;;13.93;12.35;;;;;;;;;;10347193;28;20087;-59
2022/01/07 06:55:03;;;;;;;18.15;14.35;;;;;;;;;;10349994;28;20051;-58
2022/01/07 07:00:01;;;;;;;15.57;12.38;;;;;;;;;;10348973;28;20075;-58
2022/01/07 07:05:00;;;;;;;17.00;12.50;;;;;;;;;;10350273;28;20075;-58
2022/01/07 07:09:59;;;;;;;60.83;42.53;;;;;;;;;;10349530;28;20071;-59
2022/01/07 07:14:57;;;;;;;23.05;16.65;;;;;;;;;;10343781;28;20059;-59
2022/01/07 07:19:55;;;;;;;18.02;14.88;;;;;;;;;;10343467;28;20457;-58
2022/01/07 07:24:55;;;;;;;17.90;14.45;;;;;;;;;;10340271;28;20087;-58
2022/01/07 07:29:53;;;;;;;14.90;12.70;;;;;;;;;;10340524;28;20064;-58
2022/01/07 07:35:12;;;;;;;50.08;31.73;;;;;;;;;;10338570;28;20340;-58
2022/01/07 07:40:12;;;;;;;39.22;24.85;;;;;;;;;;10340803;28;20070;-58
2022/01/07 07:45:12;;;;;;;38.92;24.63;;;;;;;;;;10343527;28;20060;-58
2022/01/07 07:50:10;;;;;;;28.42;20.48;;;;;;;;;;10346706;28;20078;-59
2022/01/07 07:55:09;;;;;;;28.75;17.35;;;;;;;;;;10347992;28;20060;-58
2022/01/07 08:00:09;;;;;;;31.48;21.85;;;;;;;;;;10344323;28;20551;-58
2022/01/07 08:05:11;;;;;;;35.75;20.08;;;;;;;;;;10342321;28;20500;-58
2022/01/07 08:10:09;;;;;;;33.83;23.10;;;;;;;;;;10346479;28;20466;-58
2022/01/07 08:20:25;;;;;;;30.67;23.33;;;;;;;;;;10355925;28;20481;-59
2022/01/07 08:25:24;;;;;;;24.48;17.33;;;;;;;;;;10352340;28;20465;-59
2022/01/07 08:30:25;;;;;;;56.53;43.17;;;;;;;;;;10356455;28;20056;-60
2022/01/07 08:35:23;;;;;;;53.15;33.88;;;;;;;;;;10356295;28;20400;-56
2022/01/07 08:40:21;;;;;;;48.58;30.20;;;;;;;;;;10354610;28;20083;-56
2022/01/07 08:45:20;;;;;;;47.78;29.63;;;;;;;;;;10356428;28;20095;-56
2022/01/07 08:50:19;;;;;;;32.63;23.20;;;;;;;;;;10340378;28;20079;-56
2022/01/07 08:55:18;;;;;;;26.05;18.85;;;;;;;;;;10353115;28;20064;-56
2022/01/07 09:00:16;;;;;;;28.95;22.13;;;;;;;;;;10355735;28;20064;-58
2022/01/07 09:05:15;;;;;;;27.13;20.52;;;;;;;;;;10356926;28;20309;-57
2022/01/07 09:10:14;;;;;;;33.08;20.67;;;;;;;;;;10355155;28;20059;-55
2022/01/07 09:15:13;;;;;;;37.70;24.38;;;;;;;;;;10354775;28;20448;-56
2022/01/07 09:20:12;;;;;;;55.58;29.38;;;;;;;;;;10351446;28;20468;-55
2022/01/07 09:25:11;;;;;;;34.35;22.40;;;;;;;;;;10354299;28;20056;-57
2022/01/07 09:30:11;;;;;;;79.45;43.97;;;;;;;;;;10353081;28;20063;-58
2022/01/07 09:35:11;;;;;;;36.22;22.73;;;;;;;;;;10354626;28;20076;-56
2022/01/07 09:40:10;;;;;;;44.03;26.85;;;;;;;;;;10355225;28;20071;-57
2022/01/07 09:45:09;;;;;;;33.83;23.58;;;;;;;;;;10353592;28;20481;-56
2022/01/07 09:50:10;;;;;;;46.97;27.88;;;;;;;;;;10354763;28;20086;-57
2022/01/07 09:55:09;;;;;;;32.97;22.60;;;;;;;;;;10352697;28;20074;-59
2022/01/07 10:00:08;;;;;;;62.28;41.03;;;;;;;;;;10350439;28;20075;-58
2022/01/07 10:05:17;;;;;;;22.83;15.32;;;;;;;;;;10352541;28;20480;-59
2022/01/07 10:10:18;;;;;;;13.98;11.75;;;;;;;;;;10352760;28;20060;-59
2022/01/07 10:15:17;;;;;;;35.40;25.98;;;;;;;;;;10349405;28;20462;-58
2022/01/07 10:20:17;;;;;;;15.68;11.07;;;;;;;;;;10350359;28;20067;-59
2022/01/07 10:25:20;;;;;;;17.42;13.07;;;;;;;;;;10349058;28;20075;-59
2022/01/07 10:30:25;;;;;;;23.00;19.63;;;;;;;;;;10349954;28;20079;-58
2022/01/07 10:35:27;;;;;;;22.38;15.88;;;;;;;;;;10349538;28;20127;-59
2022/01/07 10:40:30;;;;;;;13.85;11.13;;;;;;;;;;10351510;28;20075;-58
2022/01/07 10:45:29;;;;;;;17.27;12.38;;;;;;;;;;10351084;28;20079;-59
2022/01/07 10:50:29;;;;;;;27.67;18.52;;;;;;;;;;10349414;28;20083;-60
2022/01/07 10:55:27;;;;;;;24.42;16.05;;;;;;;;;;10350699;28;20056;-59
2022/01/07 11:00:27;;;;;;;21.10;14.55;;;;;;;;;;10351476;28;20056;-59
2022/01/07 11:05:26;;;;;;;19.58;13.35;;;;;;;;;;10349770;28;20067;-59
2022/01/07 11:10:25;;;;;;;14.95;11.23;;;;;;;;;;10351161;28;20485;-60
2022/01/07 11:15:24;;;;;;;15.70;12.00;;;;;;;;;;10350210;28;20059;-59
2022/01/07 11:20:24;;;;;;;18.52;14.52;;;;;;;;;;10350063;28;20062;-60
2022/01/07 11:25:30;;;;;;;17.52;11.07;;;;;;;;;;10349269;28;20493;-59
2022/01/07 11:30:33;;;;;;;17.90;14.70;;;;;;;;;;10350444;28;20071;-58
2022/01/07 11:35:41;;;;;;;20.77;13.43;;;;;;;;;;10351328;28;20064;-59
2022/01/07 11:40:46;;;;;;;16.52;13.88;;;;;;;;;;10349861;28;20060;-60
2022/01/07 11:45:45;;;;;;;26.67;18.38;;;;;;;;;;10352822;28;20071;-59
2022/01/07 11:50:45;;;;;;;16.08;13.30;;;;;;;;;;10357952;28;20063;-59
2022/01/07 11:55:45;;;;;;;20.35;15.82;;;;;;;;;;10357740;28;20059;-60
2022/01/07 12:00:57;;;;;;;19.50;13.65;;;;;;;;;;10358482;28;20063;-60
2022/01/07 12:05:55;;;;;;;24.25;18.67;;;;;;;;;;10356813;28;20090;-60
2022/01/07 12:11:08;;;;;;;19.35;14.38;;;;;;;;;;10337840;28;20063;-60
2022/01/07 12:16:07;;;;;;;41.90;26.63;;;;;;;;;;10356921;28;20055;-60
2022/01/07 12:21:05;;;;;;;37.75;24.80;;;;;;;;;;10356043;28;20063;-60
2022/01/07 12:26:03;;;;;;;38.17;23.88;;;;;;;;;;10356917;28;20068;-58
2022/01/07 12:31:07;;;;;;;30.10;15.25;;;;;;;;;;10356663;28;20064;-58
2022/01/07 12:36:06;;;;;;;27.20;19.70;;;;;;;;;;10354252;28;20083;-58
2022/01/07 12:41:04;;;;;;;28.60;19.25;;;;;;;;;;10354340;28;20067;-58
2022/01/07 12:46:03;;;;;;;29.80;21.65;;;;;;;;;;10354562;28;20539;-58
2022/01/07 12:51:04;;;;;;;36.00;23.67;;;;;;;;;;10352634;28;20102;-59
2022/01/07 12:56:21;;;;;;;22.67;17.55;;;;;;;;;;10354525;28;20032;-59
2022/01/07 13:01:26;;;;;;;29.08;17.35;;;;;;;;;;10354845;28;20072;-59
2022/01/07 13:06:26;;;;;;;24.48;16.85;;;;;;;;;;10354944;28;20075;-58
2022/01/07 13:11:24;;;;;;;20.25;15.60;;;;;;;;;;10354647;28;20066;-58
2022/01/07 13:16:22;;;;;;;22.33;19.98;;;;;;;;;;10354063;28;20064;-58
2022/01/07 13:21:21;;;;;;;40.60;33.72;;;;;;;;;;10354359;28;20098;-59
2022/01/07 13:26:22;;;;;;;27.27;22.83;;;;;;;;;;10347790;28;20071;-59
2022/01/07 13:31:29;;;;;;;28.38;20.77;;;;;;;;;;10353291;28;20083;-59
2022/01/07 13:36:35;;;;;;;22.85;17.58;;;;;;;;;;10353810;28;20094;-60
2022/01/07 13:41:35;;;;;;;23.17;19.30;;;;;;;;;;10353489;28;20064;-58
2022/01/07 13:46:36;;;;;;;24.48;20.65;;;;;;;;;;10354949;28;20151;-59
2022/01/07 13:51:36;;;;;;;27.55;22.60;;;;;;;;;;10355185;28;20076;-59
2022/01/07 13:56:39;;;;;;;23.85;20.02;;;;;;;;;;10336402;28;20074;-59
2022/01/07 14:01:38;;;;;;;29.55;21.65;;;;;;;;;;10350999;28;20059;-59
2022/01/07 14:06:41;;;;;;;32.47;23.85;;;;;;;;;;10352756;28;20067;-58
2022/01/07 14:11:40;;;;;;;34.78;24.33;;;;;;;;;;10351530;28;20060;-59
2022/01/07 14:16:43;;;;;;;32.97;23.40;;;;;;;;;;10352751;28;20067;-59
2022/01/07 14:21:42;;;;;;;38.50;26.48;;;;;;;;;;10353273;28;20090;-60
2022/01/07 14:26:46;;;;;;;28.73;20.50;;;;;;;;;;10353324;28;20071;-58
2022/01/07 14:31:44;;;;;;;34.72;20.83;;;;;;;;;;10351871;28;20079;-58
2022/01/07 14:36:43;;;;;;;27.40;21.33;;;;;;;;;;10351681;28;20455;-58
2022/01/07 14:41:41;;;;;;;24.60;18.77;;;;;;;;;;10350863;28;20512;-58
2022/01/07 14:46:41;;;;;;;21.33;16.02;;;;;;;;;;10351176;28;20512;-59
2022/01/07 14:51:40;;;;;;;28.48;20.05;;;;;;;;;;10350491;28;20469;-59
2022/01/07 14:56:38;;;;;;;40.80;24.52;;;;;;;;;;10350711;28;20520;-59
2022/01/07 15:01:45;;;;;;;29.20;20.63;;;;;;;;;;10346712;28;20063;-58
2022/01/07 15:06:44;;;;;;;19.75;15.93;;;;;;;;;;10350277;28;20074;-59
2022/01/07 15:11:43;;;;;;;29.02;17.08;;;;;;;;;;10348719;28;20078;-58
2022/01/07 15:16:45;;;;;;;23.88;16.00;;;;;;;;;;10350565;28;20074;-59
2022/01/07 15:21:45;;;;;;;26.75;18.10;;;;;;;;;;10358509;28;20056;-59
2022/01/07 15:26:44;;;;;;;34.17;22.88;;;;;;;;;;10363339;28;20079;-58
2022/01/07 15:31:43;;;;;;;36.28;21.98;;;;;;;;;;10363905;28;20052;-59
2022/01/07 15:36:42;;;;;;;33.28;20.95;;;;;;;;;;10364325;28;21022;-59
2022/01/07 15:41:43;;;;;;;42.25;26.48;;;;;;;;;;10362103;28;20060;-59
2022/01/07 15:46:41;;;;;;;41.35;25.75;;;;;;;;;;10363724;28;21492;-59
2022/01/07 15:51:40;;;;;;;35.28;22.58;;;;;;;;;;10364724;28;20080;-59
2022/01/07 15:56:38;;;;;;;30.15;21.02;;;;;;;;;;10365279;28;20070;-60
2022/01/07 16:01:38;;;;;;;35.03;24.60;;;;;;;;;;10363426;28;20060;-60
2022/01/07 16:06:36;;;;;;;31.08;23.95;;;;;;;;;;10363692;28;20064;-59
2022/01/07 16:11:34;;;;;;;44.28;33.28;;;;;;;;;;10363128;28;20529;-60
2022/01/07 16:16:33;;;;;;;28.23;23.88;;;;;;;;;;10361005;28;20064;-59
2022/01/07 16:21:32;;;;;;;32.92;26.05;;;;;;;;;;10363572;28;20059;-60
2022/01/07 16:26:30;;;;;;;45.17;30.33;;;;;;;;;;10362852;28;20039;-59
2022/01/07 16:31:29;;;;;;;38.65;26.05;;;;;;;;;;10359339;28;20080;-61
2022/01/07 16:36:29;;;;;;;30.48;23.40;;;;;;;;;;10356231;28;20072;-60
2022/01/07 16:41:28;;;;;;;65.50;43.83;;;;;;;;;;10354881;28;20517;-58
2022/01/07 16:46:28;;;;;;;31.35;20.38;;;;;;;;;;10355661;28;20059;-60
2022/01/07 16:51:26;;;;;;;31.23;19.88;;;;;;;;;;10355532;28;20087;-60
2022/01/07 16:56:24;;;;;;;29.38;21.70;;;;;;;;;;10355261;28;20056;-60
2022/01/07 17:01:25;;;;;;;45.25;25.92;;;;;;;;;;10356019;28;20170;-59
2022/01/07 17:06:24;;;;;;;37.60;21.80;;;;;;;;;;10354806;28;20079;-60
2022/01/07 17:11:22;;;;;;;18.42;13.95;;;;;;;;;;10354279;28;20064;-60
2022/01/07 17:16:20;;;;;;;25.75;18.33;;;;;;;;;;10337804;28;20075;-59
2022/01/07 17:21:20;;;;;;;20.92;14.27;;;;;;;;;;10353315;28;20064;-60
2022/01/07 17:26:19;;;;;;;22.50;15.18;;;;;;;;;;10353310;28;20074;-60
2022/01/07 17:31:18;;;;;;;21.63;14.35;;;;;;;;;;10354168;28;20080;-60
2022/01/07 17:36:16;;;;;;;18.02;13.07;;;;;;;;;;10353487;28;20060;-60
2022/01/07 17:41:16;;;;;;;17.70;13.05;;;;;;;;;;10354376;28;20457;-58
2022/01/07 17:46:14;;;;;;;19.25;13.45;;;;;;;;;;10353040;28;20066;-60
2022/01/07 17:51:12;;;;;;;21.70;15.35;;;;;;;;;;10351966;28;20083;-58
2022/01/07 17:56:11;;;;;;;24.50;17.48;;;;;;;;;;10352750;28;20082;-59
2022/01/07 18:01:10;;;;;;;21.67;16.00;;;;;;;;;;10353437;28;20071;-58
2022/01/07 18:06:09;;;;;;;32.90;17.90;;;;;;;;;;10352730;28;20064;-59
2022/01/07 18:11:07;;;;;;;40.88;24.58;;;;;;;;;;10349227;28;20476;-56
2022/01/07 18:16:05;;;;;;;41.80;25.13;;;;;;;;;;10348430;28;20075;-59
2022/01/07 18:21:06;;;;;;;68.70;34.38;;;;;;;;;;10349410;28;20452;-58
2022/01/07 18:26:04;;;;;;;31.92;19.33;;;;;;;;;;10348382;28;20060;-58
2022/01/07 18:31:03;;;;;;;36.33;22.42;;;;;;;;;;10347986;28;20071;-57
2022/01/07 18:36:01;;;;;;;41.47;24.35;;;;;;;;;;10348819;28;20470;-57
2022/01/07 18:41:01;;;;;;;32.45;18.00;;;;;;;;;;10351199;28;20087;-58
2022/01/07 18:46:03;;;;;;;30.42;18.23;;;;;;;;;;10352493;28;20337;-58
2022/01/07 18:51:02;;;;;;;26.80;16.90;;;;;;;;;;10350755;28;20520;-59
2022/01/07 18:56:02;;;;;;;28.23;17.23;;;;;;;;;;10342563;28;20055;-59
2022/01/07 19:01:00;;;;;;;21.70;14.85;;;;;;;;;;10346642;28;20060;-59
2022/01/07 19:06:09;;;;;;;20.70;14.27;;;;;;;;;;10342157;28;20074;-58
2022/01/07 19:11:08;;;;;;;23.05;15.88;;;;;;;;;;10344559;28;20477;-58
2022/01/07 19:16:07;;;;;;;22.58;15.85;;;;;;;;;;10345494;28;20063;-52
2022/01/07 19:21:06;;;;;;;22.40;15.85;;;;;;;;;;10346209;28;20477;-57
2022/01/07 19:26:11;;;;;;;25.63;14.98;;;;;;;;;;10349331;28;20064;-58
2022/01/07 19:31:09;;;;;;;17.25;12.98;;;;;;;;;;10345361;28;20474;-59
2022/01/07 19:36:08;;;;;;;17.00;12.23;;;;;;;;;;10343111;28;20469;-59
2022/01/07 19:41:06;;;;;;;17.90;11.90;;;;;;;;;;10351673;28;20071;-55
2022/01/07 19:46:06;;;;;;;14.95;12.05;;;;;;;;;;10345650;28;20059;-58
2022/01/07 19:51:04;;;;;;;17.35;11.65;;;;;;;;;;10348049;28;20075;-58
2022/01/07 19:56:03;;;;;;;27.13;16.73;;;;;;;;;;10345975;28;20094;-53
2022/01/07 20:01:01;;;;;;;25.10;16.85;;;;;;;;;;10350174;28;20476;-58
2022/01/07 20:06:01;;;;;;;31.50;18.70;;;;;;;;;;10352592;28;20056;-59
2022/01/07 20:10:59;;;;;;;20.10;13.73;;;;;;;;;;10359526;28;20072;-59
2022/01/07 20:15:58;;;;;;;17.10;11.38;;;;;;;;;;10354955;28;20051;-58
2022/01/07 20:20:56;;;;;;;18.88;12.77;;;;;;;;;;10356102;28;20464;-58
2022/01/07 20:25:56;;;;;;;14.73;10.02;;;;;;;;;;10355028;28;20086;-59
2022/01/07 20:30:54;;;;;;;18.58;12.02;;;;;;;;;;10355391;28;20083;-59
2022/01/07 20:35:53;;;;;;;24.42;15.45;;;;;;;;;;10353649;28;20517;-56
2022/01/07 20:40:51;;;;;;;21.98;13.82;;;;;;;;;;10357839;28;20056;-59
2022/01/07 20:45:51;;;;;;;14.95;11.43;;;;;;;;;;10348920;28;20070;-59
2022/01/07 20:50:49;;;;;;;18.42;11.85;;;;;;;;;;10349682;28;20084;-58
2022/01/07 20:55:47;;;;;;;21.33;14.35;;;;;;;;;;10355713;28;20512;-58
2022/01/07 21:00:47;;;;;;;21.45;12.95;;;;;;;;;;10353678;28;20071;-59
2022/01/07 21:05:48;;;;;;;15.55;11.98;;;;;;;;;;10354275;28;20066;-57
2022/01/07 21:10:51;;;;;;;18.75;12.45;;;;;;;;;;10356668;28;20064;-58
2022/01/07 21:15:50;;;;;;;14.55;10.27;;;;;;;;;;10356144;28;20078;-59
2022/01/07 21:20:49;;;;;;;21.55;12.77;;;;;;;;;;10356365;28;20103;-59
2022/01/07 21:25:48;;;;;;;15.90;12.55;;;;;;;;;;10351306;28;20068;-59
2022/01/07 21:30:47;;;;;;;20.70;14.73;;;;;;;;;;10351649;28;20476;-58
2022/01/07 21:35:46;;;;;;;22.25;16.02;;;;;;;;;;10352692;28;20082;-58
2022/01/07 21:40:51;;;;;;;17.42;12.13;;;;;;;;;;10352173;28;20075;-58
2022/01/07 21:45:49;;;;;;;18.08;12.43;;;;;;;;;;10349095;28;20063;-58
2022/01/07 21:50:48;;;;;;;15.73;10.10;;;;;;;;;;10355714;28;20076;-59
2022/01/07 21:55:46;;;;;;;17.30;11.52;;;;;;;;;;10355879;28;20472;-59
2022/01/07 22:00:49;;;;;;;16.65;12.98;;;;;;;;;;10354975;28;20074;-59
2022/01/07 22:05:47;;;;;;;16.55;11.25;;;;;;;;;;10352537;28;20068;-59
2022/01/07 22:10:46;;;;;;;20.70;13.48;;;;;;;;;;10354178;28;20086;-58
2022/01/07 22:15:48;;;;;;;19.83;12.93;;;;;;;;;;10352941;28;20575;-58
2022/01/07 22:20:46;;;;;;;26.83;19.00;;;;;;;;;;10353977;28;20071;-59
2022/01/07 22:25:44;;;;;;;28.60;17.95;;;;;;;;;;10353049;28;20072;-59
2022/01/07 22:30:43;;;;;;;14.82;10.38;;;;;;;;;;10352949;28;20083;-59
2022/01/07 22:35:42;;;;;;;15.32;10.63;;;;;;;;;;10353550;28;20079;-59
2022/01/07 22:40:42;;;;;;;15.45;10.48;;;;;;;;;;10353255;28;20068;-59
2022/01/07 22:45:40;;;;;;;19.13;11.82;;;;;;;;;;10349810;28;20506;-59
2022/01/07 22:50:38;;;;;;;18.17;12.43;;;;;;;;;;10352269;28;20105;-59
2022/01/07 22:55:38;;;;;;;15.77;11.88;;;;;;;;;;10352774;28;20040;-59
2022/01/07 23:00:37;;;;;;;15.80;11.45;;;;;;;;;;10351846;28;20059;-59
2022/01/07 23:05:36;;;;;;;16.05;10.88;;;;;;;;;;10351902;28;20535;-59
2022/01/07 23:10:34;;;;;;;17.88;12.00;;;;;;;;;;10351794;28;20079;-58
2022/01/07 23:15:34;;;;;;;15.77;11.57;;;;;;;;;;10351146;28;20067;-58
2022/01/07 23:20:34;;;;;;;12.20;9.70;;;;;;;;;;10351377;28;20083;-58
2022/01/07 23:25:32;;;;;;;14.45;10.48;;;;;;;;;;10348887;28;20082;-58
2022/01/07 23:30:30;;;;;;;14.88;11.75;;;;;;;;;;10333449;28;20118;-57
2022/01/07 23:35:30;;;;;;;16.88;11.63;;;;;;;;;;10350613;28;20051;-59
2022/01/07 23:40:30;;;;;;;13.57;10.00;;;;;;;;;;10352948;28;20349;-59
2022/01/07 23:45:29;;;;;;;20.92;15.50;;;;;;;;;;10359628;28;20071;-59
2022/01/07 23:50:27;;;;;;;14.90;10.13;;;;;;;;;;10357938;28;20087;-60
2022/01/07 23:55:27;;;;;;;12.18;9.30;;;;;;;;;;10359862;28;20071;-59
